Time;durP1;ratioP1;P1;durP2;ratioP2;P2;SDS_P1;SDS_P2;PMS_P1;PMS_P2;Temp;Humidity;BMP_temperature;BMP_pressure;BME280_temperature;BME280_humidity;BME280_pressure;Samples;Min_cycle;Max_cycle;Signal;HPM_P1;HPM_P2
2022/11/25 00:01:08;;;;;;;18.73;3.35;;;11.10;99.90;;;;;;5022151;28;20045;-70
2022/11/25 00:03:34;;;;;;;19.88;3.45;;;11.00;99.90;;;;;;5021000;28;20133;-73
2022/11/25 00:06:10;;;;;;;15.18;3.42;;;11.10;99.90;;;;;;5029162;28;20026;-74
2022/11/25 00:08:37;;;;;;;16.55;3.38;;;11.10;99.90;;;;;;5028591;28;20029;-72
2022/11/25 00:11:03;;;;;;;18.15;3.60;;;11.10;99.90;;;;;;5018911;28;20034;-74
2022/11/25 00:13:30;;;;;;;23.80;3.65;;;11.10;99.90;;;;;;5007803;28;20021;-72
2022/11/25 00:15:55;;;;;;;18.35;3.60;;;11.10;99.90;;;;;;5026703;28;20028;-72
2022/11/25 00:18:21;;;;;;;19.17;3.58;;;11.10;99.90;;;;;;5024848;28;20038;-71
2022/11/25 00:20:46;;;;;;;18.48;3.22;;;11.20;99.90;;;;;;5022495;28;20082;-73
2022/11/25 00:23:12;;;;;;;22.77;3.72;;;11.10;99.90;;;;;;5023044;28;20045;-74
2022/11/25 00:25:37;;;;;;;20.02;3.38;;;11.10;99.90;;;;;;5026915;28;20034;-73
2022/11/25 00:28:04;;;;;;;14.18;2.90;;;11.20;99.90;;;;;;5026168;28;20041;-75
2022/11/25 00:30:30;;;;;;;15.32;3.22;;;11.20;99.90;;;;;;5016117;28;20110;-74
2022/11/25 00:32:55;;;;;;;18.02;3.47;;;11.20;99.90;;;;;;5029469;28;20029;-74
2022/11/25 00:35:21;;;;;;;17.20;3.97;;;11.20;99.90;;;;;;5026757;28;20473;-73
2022/11/25 00:37:47;;;;;;;21.35;3.70;;;11.20;99.90;;;;;;5020704;28;20029;-74
2022/11/25 00:40:12;;;;;;;13.68;3.35;;;11.30;99.90;;;;;;5023915;28;20032;-74
2022/11/25 00:45:22;;;;;;;20.58;3.88;;;11.20;99.90;;;;;;5025093;28;20492;-74
2022/11/25 00:47:48;;;;;;;12.95;2.88;;;11.30;99.90;;;;;;5020341;28;20030;-74
2022/11/25 00:50:13;;;;;;;14.02;3.28;;;11.30;99.90;;;;;;5030401;28;20024;-74
2022/11/25 00:52:39;;;;;;;17.23;3.55;;;11.30;99.90;;;;;;5020066;28;20088;-72
2022/11/25 00:55:05;;;;;;;14.48;3.17;;;11.40;99.90;;;;;;5020806;28;20144;-74
2022/11/25 00:57:30;;;;;;;16.30;3.60;;;11.40;99.90;;;;;;5023482;28;20025;-74
2022/11/25 00:59:56;;;;;;;16.25;3.70;;;11.40;99.90;;;;;;5022481;28;20521;-74
2022/11/25 01:02:22;;;;;;;17.67;3.65;;;11.40;99.90;;;;;;5022906;28;20033;-72
2022/11/25 01:04:47;;;;;;;16.73;3.33;;;11.40;99.90;;;;;;5020376;28;20034;-72
2022/11/25 01:07:14;;;;;;;12.13;2.78;;;11.40;99.90;;;;;;5022380;28;20478;-74
2022/11/25 01:09:39;;;;;;;18.83;3.13;;;11.40;99.90;;;;;;5018962;28;20040;-74
2022/11/25 01:12:05;;;;;;;23.80;4.38;;;11.40;99.90;;;;;;5020382;28;20026;-74
2022/11/25 01:14:31;;;;;;;20.08;3.33;;;11.40;99.90;;;;;;5030035;28;20044;-74
2022/11/25 01:16:56;;;;;;;18.38;3.47;;;11.40;99.90;;;;;;5022674;28;20072;-74
2022/11/25 01:19:22;;;;;;;10.93;2.70;;;11.50;99.90;;;;;;5019829;28;20030;-75
2022/11/25 01:21:48;;;;;;;15.63;3.30;;;11.50;99.90;;;;;;5025990;28;20033;-74
2022/11/25 01:24:14;;;;;;;14.20;2.97;;;11.50;99.90;;;;;;5018943;28;20492;-74
2022/11/25 01:26:41;;;;;;;18.60;2.97;;;11.50;99.90;;;;;;5023162;28;20037;-74
2022/11/25 01:29:13;;;;;;;19.88;3.88;;;11.60;99.90;;;;;;5024822;28;20497;-73
2022/11/25 01:31:39;;;;;;;11.45;2.90;;;11.50;99.90;;;;;;5020669;28;20441;-75
2022/11/25 01:34:15;;;;;;;17.30;2.97;;;11.50;99.90;;;;;;5024443;28;20025;-74
2022/11/25 01:36:41;;;;;;;17.08;3.22;;;11.50;99.90;;;;;;5018597;28;20033;-76
2022/11/25 01:39:07;;;;;;;19.52;3.17;;;11.50;99.90;;;;;;5018515;28;20033;-75
2022/11/25 01:41:34;;;;;;;18.15;3.10;;;11.50;99.90;;;;;;5020206;28;20378;-76
2022/11/25 01:44:02;;;;;;;14.10;2.50;;;11.60;99.90;;;;;;5026707;28;20069;-75
2022/11/25 01:46:34;;;;;;;16.42;3.55;;;11.60;99.90;;;;;;5016391;28;20073;-76
2022/11/25 01:49:04;;;;;;;16.52;3.15;;;11.60;99.90;;;;;;5027769;28;20021;-75
2022/11/25 01:51:45;;;;;;;20.27;3.15;;;11.60;99.90;;;;;;5023818;28;20068;-76
2022/11/25 01:54:14;;;;;;;16.80;3.25;;;11.60;99.90;;;;;;5017368;28;20041;-74
2022/11/25 01:56:57;;;;;;;18.30;3.50;;;11.60;99.90;;;;;;5017968;28;20033;-76
2022/11/25 01:59:24;;;;;;;19.33;3.28;;;11.60;99.90;;;;;;5030611;28;20029;-75
2022/11/25 02:01:50;;;;;;;19.13;3.78;;;11.70;99.90;;;;;;5011768;28;20477;-74
2022/11/25 02:04:18;;;;;;;15.15;3.38;;;11.60;99.90;;;;;;5021469;28;20042;-74
2022/11/25 02:06:52;;;;;;;19.80;3.30;;;11.60;99.90;;;;;;5026767;28;20014;-75
2022/11/25 02:09:19;;;;;;;13.27;3.55;;;11.60;99.90;;;;;;5029897;28;20029;-75
2022/11/25 02:11:45;;;;;;;13.35;3.10;;;11.50;99.90;;;;;;5028601;28;20025;-74
2022/11/25 02:14:13;;;;;;;14.00;3.38;;;11.50;99.90;;;;;;5022674;28;20440;-74
2022/11/25 02:16:38;;;;;;;21.27;2.50;;;11.50;99.90;;;;;;5028447;28;20493;-76
2022/11/25 02:19:12;;;;;;;14.48;3.25;;;11.50;99.90;;;;;;5024312;28;20048;-75
2022/11/25 02:21:46;;;;;;;22.92;4.10;;;11.50;99.90;;;;;;5024779;28;20018;-75
2022/11/25 02:24:19;;;;;;;20.83;3.17;;;11.50;99.90;;;;;;5027264;28;20124;-76
2022/11/25 02:26:45;;;;;;;18.02;3.47;;;11.50;99.90;;;;;;5025913;28;20034;-76
2022/11/25 02:29:11;;;;;;;15.38;3.47;;;11.50;99.90;;;;;;5029921;28;20029;-74
2022/11/25 02:31:37;;;;;;;19.52;4.20;;;11.60;99.90;;;;;;5025382;28;20041;-76
2022/11/25 02:34:02;;;;;;;20.15;4.00;;;11.50;99.90;;;;;;5032281;28;20390;-76
2022/11/25 02:36:28;;;;;;;17.42;3.50;;;11.50;99.90;;;;;;5019229;28;20080;-76
2022/11/25 02:38:56;;;;;;;17.58;3.58;;;11.50;99.90;;;;;;5022383;28;20544;-75
2022/11/25 02:41:24;;;;;;;14.75;3.00;;;11.50;99.90;;;;;;5024723;28;20489;-76
2022/11/25 02:43:50;;;;;;;19.15;3.13;;;11.60;99.90;;;;;;5017474;28;20038;-76
2022/11/25 02:46:18;;;;;;;21.33;3.35;;;11.60;99.90;;;;;;5024296;28;20448;-74
2022/11/25 02:48:43;;;;;;;21.58;3.33;;;11.60;99.90;;;;;;5024598;28;20132;-76
2022/11/25 02:51:12;;;;;;;22.77;3.90;;;11.60;99.90;;;;;;5026370;28;20030;-76
2022/11/25 02:53:39;;;;;;;17.88;2.95;;;11.50;99.90;;;;;;5012033;28;20026;-74
2022/11/25 02:56:05;;;;;;;16.40;3.25;;;11.60;99.90;;;;;;5031473;28;20145;-76
2022/11/25 02:58:30;;;;;;;16.05;2.80;;;11.60;99.90;;;;;;5031249;28;20482;-75
2022/11/25 03:00:56;;;;;;;17.02;2.40;;;11.60;99.90;;;;;;5027446;28;20176;-75
2022/11/25 03:03:21;;;;;;;12.00;2.60;;;11.60;99.90;;;;;;5030267;28;20042;-76
2022/11/25 03:05:47;;;;;;;19.33;3.95;;;11.50;99.90;;;;;;5031438;28;20061;-76
2022/11/25 03:08:13;;;;;;;12.27;2.38;;;11.60;99.90;;;;;;5021460;28;20038;-75
2022/11/25 03:10:39;;;;;;;16.50;3.15;;;11.50;99.90;;;;;;5022992;28;20041;-77
2022/11/25 03:13:06;;;;;;;16.05;2.90;;;11.50;99.90;;;;;;5024040;28;20108;-76
2022/11/25 03:15:32;;;;;;;15.13;2.67;;;11.50;99.90;;;;;;5027494;28;20052;-76
2022/11/25 03:17:58;;;;;;;16.10;2.60;;;11.40;99.90;;;;;;5026460;28;20485;-76
2022/11/25 03:20:24;;;;;;;18.88;3.00;;;11.40;99.90;;;;;;5021253;28;20028;-76
2022/11/25 03:22:49;;;;;;;11.60;2.63;;;11.30;99.90;;;;;;5008918;28;20465;-76
2022/11/25 03:25:16;;;;;;;18.50;3.35;;;11.20;99.90;;;;;;5018931;28;20490;-75
2022/11/25 03:27:41;;;;;;;15.60;2.38;;;11.10;99.90;;;;;;5025673;28;20249;-71
2022/11/25 03:30:12;;;;;;;16.20;2.88;;;11.00;99.90;;;;;;5022126;28;20060;-75
2022/11/25 03:32:38;;;;;;;15.52;3.10;;;11.00;99.90;;;;;;5025683;28;20087;-74
2022/11/25 03:35:05;;;;;;;14.48;2.28;;;11.00;99.90;;;;;;5027639;28;20037;-73
2022/11/25 03:37:30;;;;;;;20.20;2.95;;;11.00;99.90;;;;;;5020872;28;20064;-76
2022/11/25 03:39:56;;;;;;;17.95;3.25;;;11.00;99.90;;;;;;5018474;28;20053;-75
2022/11/25 03:42:21;;;;;;;10.85;3.10;;;11.10;99.90;;;;;;5021952;28;20033;-74
2022/11/25 03:44:47;;;;;;;14.15;2.35;;;11.00;99.90;;;;;;5018516;28;20037;-75
2022/11/25 03:47:13;;;;;;;9.15;2.00;;;11.00;99.90;;;;;;5022051;28;20592;-74
2022/11/25 03:49:39;;;;;;;11.52;3.00;;;11.10;99.90;;;;;;5029861;28;20551;-75
2022/11/25 03:52:05;;;;;;;11.70;2.03;;;11.10;99.90;;;;;;5027766;28;20033;-72
2022/11/25 03:54:30;;;;;;;14.25;2.10;;;11.20;99.90;;;;;;5008789;28;20026;-75
2022/11/25 03:56:56;;;;;;;11.45;2.10;;;11.20;99.90;;;;;;5022886;28;20028;-75
2022/11/25 03:59:22;;;;;;;10.93;2.20;;;11.20;99.90;;;;;;5024671;28;20032;-76
2022/11/25 04:01:47;;;;;;;12.63;2.35;;;11.30;99.90;;;;;;5027146;28;20388;-75
2022/11/25 04:04:13;;;;;;;9.18;2.08;;;11.30;99.90;;;;;;5023029;28;20041;-73
2022/11/25 04:06:39;;;;;;;9.35;2.00;;;11.30;99.90;;;;;;5030811;28;20105;-75
2022/11/25 04:09:08;;;;;;;10.88;1.75;;;11.40;99.90;;;;;;5019611;28;20021;-76
2022/11/25 04:14:18;;;;;;;7.38;1.90;;;11.40;99.90;;;;;;5028212;28;20039;-73
2022/11/25 04:16:44;;;;;;;7.65;2.05;;;11.30;99.90;;;;;;5026970;28;20029;-75
2022/11/25 04:19:10;;;;;;;11.05;2.03;;;11.40;99.90;;;;;;5020540;28;20030;-72
2022/11/25 04:21:35;;;;;;;7.57;1.92;;;11.40;99.90;;;;;;5024196;28;20026;-76
2022/11/25 04:24:02;;;;;;;10.57;1.67;;;11.40;99.90;;;;;;5021414;28;20472;-73
2022/11/25 04:26:27;;;;;;;6.78;1.27;;;11.30;99.90;;;;;;5012429;28;20493;-75
2022/11/25 04:28:53;;;;;;;7.38;1.50;;;11.30;99.90;;;;;;5021576;28;20071;-75
2022/11/25 04:31:19;;;;;;;6.32;1.35;;;11.30;99.90;;;;;;5026319;28;20033;-75
2022/11/25 04:33:44;;;;;;;8.18;1.38;;;11.30;99.90;;;;;;5015702;28;20470;-75
2022/11/25 04:36:10;;;;;;;3.83;1.50;;;11.30;99.90;;;;;;5021471;28;20524;-75
2022/11/25 04:38:36;;;;;;;7.60;1.67;;;11.30;99.90;;;;;;5012711;28;20056;-75
2022/11/25 04:41:01;;;;;;;4.22;1.00;;;11.30;99.90;;;;;;5023984;28;20032;-75
2022/11/25 04:43:27;;;;;;;7.03;1.60;;;11.20;99.90;;;;;;5022256;28;20049;-75
2022/11/25 04:45:52;;;;;;;5.88;1.30;;;11.20;99.90;;;;;;5021240;28;20095;-75
2022/11/25 04:48:18;;;;;;;5.95;1.02;;;11.10;99.90;;;;;;5007177;28;20489;-75
2022/11/25 04:50:44;;;;;;;2.45;0.80;;;11.00;99.90;;;;;;5020588;28;20030;-70
2022/11/25 04:53:10;;;;;;;5.28;1.20;;;11.00;99.90;;;;;;5023225;28;20534;-75
2022/11/25 04:55:36;;;;;;;5.70;1.10;;;11.00;99.90;;;;;;5023909;28;20037;-75
2022/11/25 04:58:02;;;;;;;6.80;1.60;;;11.00;99.90;;;;;;5022684;28;20084;-75
2022/11/25 05:00:27;;;;;;;3.30;1.13;;;11.00;99.90;;;;;;5020908;28;20087;-76
2022/11/25 05:02:53;;;;;;;3.30;1.02;;;11.00;99.90;;;;;;5025158;28;20105;-74
2022/11/25 05:05:19;;;;;;;3.03;1.40;;;11.00;99.90;;;;;;5000272;28;20037;-75
2022/11/25 05:07:44;;;;;;;3.22;1.05;;;10.90;99.90;;;;;;5020745;28;20033;-76
2022/11/25 05:10:10;;;;;;;3.85;1.17;;;10.90;99.90;;;;;;5027227;28;20030;-75
2022/11/25 05:12:36;;;;;;;4.03;1.08;;;10.90;99.90;;;;;;5018570;28;20482;-76
2022/11/25 05:15:03;;;;;;;8.40;1.30;;;10.80;99.90;;;;;;5024769;28;20026;-76
2022/11/25 05:17:30;;;;;;;6.05;1.50;;;10.80;99.90;;;;;;5019149;28;20032;-76
2022/11/25 05:19:56;;;;;;;7.95;1.65;;;10.70;99.90;;;;;;5023639;28;20029;-73
2022/11/25 05:22:25;;;;;;;6.78;1.65;;;10.70;99.90;;;;;;5021844;28;20390;-76
2022/11/25 05:24:50;;;;;;;7.45;1.80;;;10.80;99.90;;;;;;5024184;28;20037;-73
2022/11/25 05:27:17;;;;;;;6.65;2.25;;;10.70;99.90;;;;;;5027497;28;20026;-76
2022/11/25 05:29:43;;;;;;;8.18;1.77;;;10.70;99.90;;;;;;5024833;28;20033;-75
2022/11/25 05:32:09;;;;;;;6.38;2.20;;;10.70;99.90;;;;;;5027659;28;20037;-76
2022/11/25 05:34:35;;;;;;;7.45;1.80;;;10.70;99.90;;;;;;5026907;28;20461;-75
2022/11/25 05:37:00;;;;;;;5.10;1.85;;;10.80;99.90;;;;;;5029406;28;20033;-75
2022/11/25 05:39:26;;;;;;;5.65;1.80;;;10.70;99.90;;;;;;5031138;28;20028;-76
2022/11/25 05:41:51;;;;;;;6.03;1.92;;;10.70;99.90;;;;;;5031469;28;20024;-75
2022/11/25 05:44:17;;;;;;;7.05;1.58;;;10.70;99.90;;;;;;5028443;28;20481;-75
2022/11/25 05:46:47;;;;;;;4.53;1.52;;;10.60;99.90;;;;;;5032000;28;20527;-76
2022/11/25 05:49:13;;;;;;;6.55;1.65;;;10.60;99.90;;;;;;5031100;28;20101;-76
2022/11/25 05:51:39;;;;;;;10.45;2.03;;;10.60;99.90;;;;;;5032421;28;20029;-76
2022/11/25 05:54:05;;;;;;;10.73;1.98;;;10.60;99.90;;;;;;5029238;28;20036;-77
2022/11/25 05:56:30;;;;;;;9.40;2.05;;;10.40;99.90;;;;;;5029061;28;20109;-75
2022/11/25 05:58:58;;;;;;;9.52;2.17;;;10.30;99.90;;;;;;5026830;28;20407;-76
2022/11/25 06:01:24;;;;;;;6.97;2.03;;;10.30;99.90;;;;;;5028337;28;20493;-76
2022/11/25 06:03:49;;;;;;;7.20;2.20;;;10.30;99.90;;;;;;5029962;28;20531;-75
2022/11/25 06:06:15;;;;;;;10.65;2.28;;;10.40;99.90;;;;;;5027326;28;20060;-72
2022/11/25 06:08:41;;;;;;;10.50;2.47;;;10.30;99.90;;;;;;5025918;28;20018;-75
2022/11/25 06:11:08;;;;;;;10.48;2.50;;;10.30;99.90;;;;;;5024806;28;20167;-75
2022/11/25 06:13:34;;;;;;;11.18;2.47;;;10.30;99.90;;;;;;5025993;28;20105;-75
2022/11/25 06:16:09;;;;;;;12.30;2.53;;;10.30;99.90;;;;;;5028442;28;20113;-76
2022/11/25 06:18:36;;;;;;;13.05;2.90;;;10.30;99.90;;;;;;5033220;28;20022;-72
2022/11/25 06:21:03;;;;;;;9.50;2.78;;;10.20;99.90;;;;;;5026179;28;20032;-76
2022/11/25 06:23:28;;;;;;;13.10;2.95;;;10.10;99.90;;;;;;5026382;28;20061;-75
2022/11/25 06:25:54;;;;;;;19.58;3.05;;;10.10;99.90;;;;;;5029142;28;20068;-74
2022/11/25 06:28:19;;;;;;;14.82;3.22;;;10.10;99.90;;;;;;5026784;28;20021;-76
2022/11/25 06:30:45;;;;;;;10.40;2.95;;;10.10;99.90;;;;;;5031391;28;20037;-75
2022/11/25 06:33:11;;;;;;;13.20;3.10;;;10.10;99.90;;;;;;5027992;28;20037;-76
2022/11/25 06:35:37;;;;;;;8.23;2.65;;;10.20;99.90;;;;;;5022964;28;20037;-76
2022/11/25 06:38:02;;;;;;;11.60;2.47;;;10.10;99.90;;;;;;5024683;28;20370;-74
2022/11/25 06:40:28;;;;;;;9.15;3.10;;;10.20;99.90;;;;;;5030538;28;20070;-76
2022/11/25 06:42:54;;;;;;;13.98;3.17;;;10.10;99.90;;;;;;5028342;28;20017;-75
2022/11/25 06:45:19;;;;;;;14.88;3.70;;;10.20;99.90;;;;;;5028646;28;20042;-75
2022/11/25 06:47:45;;;;;;;16.88;3.63;;;10.20;99.90;;;;;;5023200;28;20037;-76
2022/11/25 06:50:10;;;;;;;13.57;3.55;;;10.10;99.90;;;;;;5024810;28;20038;-76
2022/11/25 06:52:36;;;;;;;18.50;3.63;;;10.10;99.90;;;;;;5022016;28;20033;-74
2022/11/25 06:55:02;;;;;;;15.57;3.75;;;10.10;99.90;;;;;;5031697;28;20350;-76
2022/11/25 06:57:27;;;;;;;15.45;4.45;;;10.10;99.90;;;;;;5026557;28;20041;-76
2022/11/25 06:59:53;;;;;;;10.32;4.53;;;10.10;99.90;;;;;;5021813;28;20464;-75
2022/11/25 07:02:19;;;;;;;12.07;3.20;;;10.10;99.90;;;;;;5026893;28;20125;-75
2022/11/25 07:04:44;;;;;;;12.55;3.47;;;10.10;99.90;;;;;;5029563;28;20517;-75
2022/11/25 07:07:10;;;;;;;13.82;3.75;;;10.00;99.90;;;;;;5029117;28;20025;-76
2022/11/25 07:09:36;;;;;;;16.83;3.75;;;10.00;99.90;;;;;;5030545;28;20470;-76
2022/11/25 07:12:02;;;;;;;12.80;3.55;;;10.00;99.90;;;;;;5025614;28;20026;-76
2022/11/25 07:14:27;;;;;;;15.60;3.72;;;10.00;99.90;;;;;;5029428;28;20569;-76
2022/11/25 07:16:53;;;;;;;14.32;3.63;;;10.00;99.90;;;;;;5033419;28;20036;-76
2022/11/25 07:19:19;;;;;;;16.05;3.55;;;10.00;99.90;;;;;;5027648;28;20072;-76
2022/11/25 07:21:45;;;;;;;15.63;4.13;;;10.00;99.90;;;;;;5026768;28;20061;-73
2022/11/25 07:24:13;;;;;;;12.18;4.03;;;10.00;99.90;;;;;;5025783;28;20057;-75
2022/11/25 07:26:40;;;;;;;11.50;4.22;;;10.00;99.90;;;;;;5030591;28;20065;-75
2022/11/25 07:29:09;;;;;;;15.13;3.83;;;10.00;99.90;;;;;;5026536;28;20076;-75
2022/11/25 07:31:37;;;;;;;14.70;4.28;;;10.00;99.90;;;;;;5028339;28;20038;-76
2022/11/25 07:34:04;;;;;;;12.43;3.60;;;10.00;99.90;;;;;;5022678;28;20021;-75
2022/11/25 07:36:31;;;;;;;14.65;4.20;;;10.00;99.90;;;;;;5029780;28;20021;-76
2022/11/25 07:38:58;;;;;;;13.10;3.85;;;10.00;99.90;;;;;;5030032;28;20462;-76
2022/11/25 07:41:26;;;;;;;14.07;3.80;;;9.90;99.90;;;;;;5031078;28;20048;-76
2022/11/25 07:43:54;;;;;;;14.50;3.60;;;9.90;99.90;;;;;;5027136;28;20041;-76
2022/11/25 07:46:24;;;;;;;13.57;4.13;;;9.80;99.90;;;;;;5029948;28;20033;-76
2022/11/25 07:48:52;;;;;;;15.75;4.43;;;9.90;99.90;;;;;;5025941;28;20120;-75
2022/11/25 07:51:21;;;;;;;12.70;3.40;;;9.90;99.90;;;;;;5024289;28;20030;-74
2022/11/25 07:53:48;;;;;;;11.63;4.22;;;9.90;99.90;;;;;;5030510;28;20194;-76
2022/11/25 07:56:15;;;;;;;16.98;3.92;;;9.90;99.90;;;;;;5028290;28;20473;-74
2022/11/25 07:58:41;;;;;;;12.82;4.15;;;9.90;99.90;;;;;;5021765;28;20496;-73
2022/11/25 08:01:09;;;;;;;14.75;3.65;;;9.80;99.90;;;;;;5024883;28;20397;-71
2022/11/25 08:03:36;;;;;;;18.42;5.25;;;9.80;99.90;;;;;;5029253;28;20026;-75
2022/11/25 08:06:04;;;;;;;17.48;4.38;;;9.80;99.90;;;;;;5026540;28;20583;-76
2022/11/25 08:08:30;;;;;;;17.58;4.65;;;9.90;99.90;;;;;;5028321;28;20021;-76
2022/11/25 08:10:56;;;;;;;11.75;3.65;;;9.90;99.90;;;;;;5023607;28;20385;-76
2022/11/25 08:13:21;;;;;;;11.98;4.10;;;9.90;99.90;;;;;;5025995;28;20462;-76
2022/11/25 08:15:47;;;;;;;14.63;5.07;;;9.90;99.90;;;;;;5027743;28;20022;-75
2022/11/25 08:18:13;;;;;;;15.55;4.78;;;9.80;99.90;;;;;;5028669;28;20026;-73
2022/11/25 08:20:39;;;;;;;12.07;3.83;;;9.80;99.90;;;;;;5029266;28;20519;-76
2022/11/25 08:23:05;;;;;;;15.10;3.78;;;9.90;99.90;;;;;;5031215;28;20520;-76
2022/11/25 08:25:30;;;;;;;17.75;5.05;;;9.80;99.90;;;;;;5027664;28;20029;-75
2022/11/25 08:27:58;;;;;;;14.05;4.35;;;9.80;99.90;;;;;;5025986;28;20376;-75
2022/11/25 08:30:25;;;;;;;16.33;5.00;;;9.90;99.90;;;;;;5025331;28;20041;-72
2022/11/25 08:32:51;;;;;;;15.15;4.53;;;9.90;99.90;;;;;;5023889;28;20470;-75
2022/11/25 08:35:18;;;;;;;18.08;4.75;;;9.90;99.90;;;;;;5028822;28;20113;-73
2022/11/25 08:37:44;;;;;;;15.85;4.32;;;9.90;99.90;;;;;;5027235;28;20041;-75
2022/11/25 08:40:11;;;;;;;15.80;4.28;;;10.00;99.90;;;;;;5028189;28;20020;-73
2022/11/25 08:42:37;;;;;;;10.27;3.30;;;9.90;99.90;;;;;;5005026;28;20163;-74
2022/11/25 08:45:03;;;;;;;17.10;4.75;;;9.80;99.90;;;;;;5029322;28;20068;-75
2022/11/25 08:47:29;;;;;;;8.57;4.05;;;9.80;99.90;;;;;;5026813;28;20119;-74
2022/11/25 08:49:54;;;;;;;14.43;4.57;;;9.90;99.90;;;;;;5028360;28;20029;-75
2022/11/25 08:52:21;;;;;;;22.55;4.32;;;10.00;99.90;;;;;;5025129;28;20078;-74
2022/11/25 08:54:46;;;;;;;21.58;4.75;;;9.90;99.90;;;;;;5028745;28;20014;-75
2022/11/25 08:57:12;;;;;;;17.80;3.80;;;10.00;99.90;;;;;;5022658;28;20037;-72
2022/11/25 08:59:39;;;;;;;15.45;4.57;;;10.00;99.90;;;;;;5026482;28;20488;-75
2022/11/25 09:02:06;;;;;;;15.82;4.65;;;10.00;99.90;;;;;;5020043;28;20104;-75
2022/11/25 09:04:32;;;;;;;14.80;4.13;;;10.00;99.90;;;;;;5028361;28;20082;-75
2022/11/25 09:06:58;;;;;;;15.80;4.18;;;10.10;99.90;;;;;;5028610;28;20017;-73
2022/11/25 09:09:24;;;;;;;15.05;4.22;;;10.00;99.90;;;;;;5010950;28;20025;-74
2022/11/25 09:11:50;;;;;;;19.77;4.95;;;10.10;99.90;;;;;;5029154;28;20047;-75
2022/11/25 09:14:16;;;;;;;14.48;4.85;;;10.10;99.90;;;;;;5016104;28;20022;-75
2022/11/25 09:16:42;;;;;;;16.40;4.75;;;10.10;99.90;;;;;;5030910;28;20022;-73
2022/11/25 09:19:07;;;;;;;17.45;5.13;;;10.20;99.90;;;;;;5027961;28;20040;-71
2022/11/25 09:21:33;;;;;;;18.42;4.97;;;10.20;99.90;;;;;;5028961;28;20021;-75
2022/11/25 09:23:58;;;;;;;22.15;5.57;;;10.30;99.90;;;;;;5026910;28;20385;-75
2022/11/25 09:26:26;;;;;;;16.25;4.88;;;10.40;99.90;;;;;;5024989;28;20029;-74
2022/11/25 09:28:53;;;;;;;22.33;5.03;;;10.40;99.90;;;;;;5023680;28;20064;-75
2022/11/25 09:31:19;;;;;;;16.52;5.30;;;10.40;99.90;;;;;;5023081;28;20029;-71
2022/11/25 09:33:45;;;;;;;20.83;6.15;;;10.40;99.90;;;;;;5025592;28;20025;-74
2022/11/25 09:36:13;;;;;;;19.38;5.70;;;10.50;99.90;;;;;;5021066;28;20033;-74
2022/11/25 09:38:39;;;;;;;19.33;4.80;;;10.60;99.90;;;;;;5025363;28;20025;-75
2022/11/25 09:41:15;;;;;;;22.92;5.47;;;10.60;99.90;;;;;;5030397;28;20036;-75
2022/11/25 09:46:58;;;;;;;18.45;5.55;;;10.80;99.90;;;;;;5023220;28;20070;-75
2022/11/25 09:49:42;;;;;;;16.60;4.63;;;10.90;99.90;;;;;;5021067;28;20104;-74
2022/11/25 09:52:45;;;;;;;15.55;5.10;;;10.90;99.90;;;;;;5025245;28;20029;-70
2022/11/25 09:55:21;;;;;;;20.42;5.38;;;11.00;99.90;;;;;;5029372;28;20509;-71
2022/11/25 09:58:02;;;;;;;21.38;5.18;;;11.00;99.90;;;;;;5006671;28;20029;-74
2022/11/25 10:00:37;;;;;;;23.90;5.70;;;11.10;99.90;;;;;;5023146;28;20499;-75
2022/11/25 10:03:23;;;;;;;25.63;5.20;;;11.10;99.90;;;;;;5026047;28;20030;-76
2022/11/25 10:06:05;;;;;;;19.65;5.22;;;11.10;99.90;;;;;;5011002;28;20176;-75
2022/11/25 10:08:43;;;;;;;21.02;5.22;;;11.20;99.90;;;;;;5025511;28;20040;-73
2022/11/25 10:11:23;;;;;;;18.75;4.25;;;11.20;99.90;;;;;;5033434;28;20022;-73
2022/11/25 10:14:29;;;;;;;19.33;4.90;;;11.30;99.90;;;;;;5026709;28;20102;-74
2022/11/25 10:17:10;;;;;;;17.92;4.30;;;11.40;99.90;;;;;;5025517;28;20076;-76
2022/11/25 10:19:50;;;;;;;22.80;4.40;;;11.30;99.90;;;;;;5023571;28;20482;-71
2022/11/25 10:22:30;;;;;;;17.33;4.28;;;11.40;99.90;;;;;;5030908;28;20053;-76
2022/11/25 10:25:19;;;;;;;14.68;4.35;;;11.40;99.90;;;;;;5027268;28;20037;-73
2022/11/25 10:27:53;;;;;;;20.80;4.57;;;11.50;99.90;;;;;;5028324;28;20021;-75
2022/11/25 10:30:26;;;;;;;23.52;4.53;;;11.50;99.90;;;;;;5022861;28;20447;-72
2022/11/25 10:32:58;;;;;;;15.93;4.00;;;11.60;99.90;;;;;;5023734;28;20025;-75
2022/11/25 10:35:39;;;;;;;22.40;4.40;;;11.60;99.90;;;;;;5026878;28;20018;-75
2022/11/25 10:38:10;;;;;;;18.65;3.85;;;11.60;99.90;;;;;;5030038;28;20022;-76
2022/11/25 10:40:35;;;;;;;19.25;4.25;;;11.60;99.90;;;;;;5025551;28;20022;-75
2022/11/25 10:43:13;;;;;;;19.00;4.00;;;11.60;99.90;;;;;;5015724;28;20025;-76
2022/11/25 10:45:47;;;;;;;17.23;4.07;;;11.60;99.90;;;;;;5028864;28;20397;-76
2022/11/25 10:48:29;;;;;;;19.17;4.28;;;11.70;99.90;;;;;;5027164;28;20092;-69
2022/11/25 10:51:02;;;;;;;13.13;3.55;;;11.70;99.90;;;;;;5029593;28;20419;-75
2022/11/25 10:53:31;;;;;;;16.83;4.15;;;11.70;99.90;;;;;;5025862;28;20100;-72
2022/11/25 10:56:03;;;;;;;22.13;4.70;;;11.70;99.90;;;;;;5025163;28;20014;-75
2022/11/25 10:58:34;;;;;;;14.32;2.75;;;11.60;99.90;;;;;;5020599;28;20513;-73
2022/11/25 11:01:24;;;;;;;20.38;4.50;;;11.60;99.90;;;;;;5028493;28;20021;-75
2022/11/25 11:04:02;;;;;;;16.63;3.35;;;11.60;99.90;;;;;;5015455;28;20056;-69
2022/11/25 11:06:39;;;;;;;11.98;3.15;;;11.50;99.90;;;;;;5021813;28;20555;-72
2022/11/25 11:09:25;;;;;;;17.08;3.55;;;11.50;99.90;;;;;;5024307;28;20433;-72
2022/11/25 11:11:51;;;;;;;12.98;3.72;;;11.60;99.90;;;;;;5007772;28;20469;-74
2022/11/25 11:14:19;;;;;;;9.48;3.10;;;11.60;99.90;;;;;;5029272;28;20113;-73
2022/11/25 11:16:52;;;;;;;10.45;2.80;;;11.70;99.90;;;;;;5025316;28;20040;-70
2022/11/25 11:19:27;;;;;;;10.60;2.92;;;11.70;99.90;;;;;;5025240;28;20477;-71
2022/11/25 11:21:55;;;;;;;14.82;3.45;;;11.70;99.90;;;;;;5028151;28;20021;-69
2022/11/25 11:24:34;;;;;;;9.98;3.67;;;11.70;99.90;;;;;;5025848;28;20037;-68
2022/11/25 11:27:19;;;;;;;15.52;3.63;;;11.80;99.90;;;;;;5028651;28;20085;-74
2022/11/25 11:29:44;;;;;;;8.32;2.78;;;11.80;99.90;;;;;;5025242;28;20025;-71
2022/11/25 11:32:23;;;;;;;12.68;2.97;;;11.80;99.90;;;;;;5014699;28;20477;-74
2022/11/25 11:34:51;;;;;;;16.50;3.42;;;11.80;99.90;;;;;;5026570;28;20119;-68
2022/11/25 11:37:20;;;;;;;9.43;2.38;;;11.80;99.90;;;;;;5026814;28;20041;-68
2022/11/25 11:40:24;;;;;;;14.85;2.83;;;11.80;99.90;;;;;;5026194;28;20362;-74
2022/11/25 11:43:04;;;;;;;11.20;2.80;;;11.90;99.90;;;;;;5030471;28;20034;-73
2022/11/25 11:45:36;;;;;;;11.93;2.83;;;11.90;99.90;;;;;;5008831;28;20042;-69
2022/11/25 11:48:10;;;;;;;10.80;2.60;;;11.90;99.90;;;;;;5026929;28;20355;-76
2022/11/25 11:50:49;;;;;;;13.02;3.05;;;11.90;99.90;;;;;;5026810;28;20058;-72
2022/11/25 11:53:37;;;;;;;14.52;2.67;;;11.90;99.90;;;;;;5023988;28;20032;-72
2022/11/25 11:56:25;;;;;;;10.07;2.72;;;11.90;99.90;;;;;;5023682;28;20014;-70
2022/11/25 11:59:04;;;;;;;15.27;2.55;;;12.00;99.90;;;;;;5017332;28;20034;-74
2022/11/25 12:01:56;;;;;;;10.35;2.83;;;12.00;99.90;;;;;;5028468;28;20037;-70
2022/11/25 12:04:34;;;;;;;11.05;2.72;;;12.10;99.90;;;;;;5023173;28;20046;-75
2022/11/25 12:07:12;;;;;;;10.20;2.47;;;12.10;99.90;;;;;;5027258;28;20479;-74
2022/11/25 12:10:01;;;;;;;11.45;3.13;;;12.20;99.90;;;;;;5027984;28;20037;-77
2022/11/25 12:12:43;;;;;;;9.05;2.28;;;12.20;99.90;;;;;;5027416;28;20037;-73
2022/11/25 12:15:27;;;;;;;7.72;2.15;;;12.20;99.90;;;;;;5016727;28;20038;-78
2022/11/25 12:17:59;;;;;;;8.30;2.00;;;12.30;99.90;;;;;;5026713;28;20025;-69
2022/11/25 12:20:46;;;;;;;9.65;2.38;;;12.30;99.90;;;;;;5025478;28;20028;-74
2022/11/25 12:23:37;;;;;;;9.52;2.55;;;12.40;99.90;;;;;;5009232;28;20630;-70
2022/11/25 12:26:12;;;;;;;7.97;2.35;;;12.40;99.90;;;;;;5025299;28;20524;-69
2022/11/25 12:28:51;;;;;;;6.82;2.40;;;12.40;99.90;;;;;;5023636;28;20025;-72
2022/11/25 12:31:23;;;;;;;9.20;2.25;;;12.30;99.90;;;;;;5009898;28;20516;-75
2022/11/25 12:34:15;;;;;;;12.45;3.08;;;12.30;99.90;;;;;;5024102;28;20021;-74
2022/11/25 12:36:43;;;;;;;13.48;3.30;;;12.30;99.90;;;;;;5028659;28;20035;-69
2022/11/25 12:39:20;;;;;;;7.63;2.25;;;12.40;99.90;;;;;;5020921;28;20038;-69
2022/11/25 12:42:00;;;;;;;8.57;2.33;;;12.30;99.90;;;;;;5030137;28;20030;-71
2022/11/25 12:44:28;;;;;;;13.00;3.33;;;12.30;99.90;;;;;;5028310;28;20102;-69
2022/11/25 12:46:55;;;;;;;11.90;3.03;;;12.30;99.90;;;;;;5025685;28;20025;-69
2022/11/25 12:49:27;;;;;;;13.30;3.63;;;12.40;99.90;;;;;;5020386;28;20022;-70
2022/11/25 12:52:11;;;;;;;13.95;3.13;;;12.40;99.90;;;;;;5009843;28;20025;-70
2022/11/25 12:55:09;;;;;;;11.23;3.40;;;12.50;99.90;;;;;;5030624;28;20060;-69
2022/11/25 12:58:07;;;;;;;11.07;3.42;;;12.60;99.90;;;;;;5012415;28;20128;-69
2022/11/25 13:00:51;;;;;;;9.25;2.60;;;12.70;99.90;;;;;;5020712;28;20551;-70